Latest Weather Observations for Cerberus

IDV60801

Issued at 7:33 pm EST Wednesday 26 April 2017 (issued every 30 minutes, with the page automatically refreshed every 10 minutes)

About weather observations | Map of weather stations | Latest weather observations for VIC | Other Formats
Station Details ID: 086361 Name: CERBERUS Lat: -38.36 Lon: 145.18 Height: 12.69 m
Data from the previous 72 hours. | See also: Recent months at Cerberus
Date/Time
EST
Temp
°C
App
Temp
°C
Dew
Point
°C
Rel
Hum
%
Delta-T
°C
Wind Press
QNH
hPa
Press
MSL
hPa
Rain since
9am
mm
Dir  Spd
km/h
Gust
km/h
Spd
kts
Gust
kts
26/07:30pm 11.5 5.6 3.8 59 3.4 SSW 24 37 13 20 1017.2 1017.1 1.0
26/07:00pm 11.8 6.3 4.1 59 3.5 SSW 22 35 12 19 1016.8 1016.7 1.0
26/06:30pm 11.5 5.0 2.5 54 3.9 SSW 26 43 14 23 1016.5 1016.4 1.0
26/06:19pm 11.3 4.4 2.6 55 3.8 SSW 28 52 15 28 1016.3 1016.2 1.0
26/06:00pm 11.8 5.8 3.3 56 3.7 SSW 24 41 13 22 1016.1 1016.0 1.0
26/05:30pm 11.8 6.3 1.7 50 4.3 SW 20 35 11 19 1015.7 1015.6 1.0
26/05:00pm 11.9 5.8 2.9 54 3.9 SSW 24 43 13 23 1015.3 1015.2 1.0
26/04:30pm 12.5 6.3 2.4 50 4.4 SW 24 39 13 21 1015.0 1014.9 1.0
26/04:00pm 12.8 7.2 3.2 52 4.3 SW 22 41 12 22 1014.7 1014.6 1.0
26/03:30pm 11.7 6.5 3.5 57 3.6 SSW 20 39 11 21 1014.4 1014.3 1.0
26/03:03pm 13.1 6.4 3.5 52 4.3 SSW 28 46 15 25 1013.9 1013.8 0.8
26/03:00pm 13.0 6.4 2.3 48 4.7 SSW 26 43 14 23 1013.8 1013.7 0.8
26/02:32pm 12.2 5.5 3.4 55 3.9 SW 28 50 15 27 1013.4 1013.4 0.8
26/02:30pm 12.5 6.3 2.1 49 4.5 SW 24 41 13 22 1013.3 1013.3 0.8
26/02:00pm 11.3 4.9 3.1 57 3.6 SSW 26 41 14 22 1013.3 1013.3 0.8
26/01:30pm 13.4 7.2 2.0 46 5.0 SW 24 37 13 20 1012.9 1012.9 0.8
26/01:00pm 12.6 5.7 2.5 50 4.4 SSW 28 43 15 23 1012.7 1012.7 0.8
26/12:35pm 12.2 5.3 4.7 60 3.4 SSW 30 50 16 27 1012.6 1012.6 0.8
26/12:30pm 12.4 5.6 5.1 61 3.4 SSW 30 44 16 24 1012.5 1012.5 0.8
26/12:05pm 12.5 6.3 6.1 65 3.0 SSW 28 50 15 27 1012.2 1012.2 0.8
26/12:00pm 12.1 7.1 6.4 68 2.7 S 22 43 12 23 1012.2 1012.2 0.8
26/11:35am 13.3 6.9 5.2 58 3.8 SSW 28 46 15 25 1011.8 1011.8 0.8
26/11:30am 13.5 6.9 4.4 54 4.2 SSW 28 46 15 25 1011.7 1011.7 0.8
26/11:08am 11.4 5.0 5.3 66 2.8 SSW 28 48 15 26 1011.3 1011.3 0.8
26/11:00am 11.2 5.4 6.3 72 2.3 SSW 26 44 14 24 1011.4 1011.4 0.8
26/10:35am 13.6 6.7 4.7 55 4.1 SSW 30 48 16 26 1010.8 1010.8 0.0
26/10:30am 13.7 6.6 5.3 57 3.9 SSW 32 48 17 26 1010.8 1010.8 0.0
26/10:03am 14.1 6.7 4.1 51 4.6 SSW 32 54 17 29 1010.1 1010.1 0.0
26/10:00am 14.0 6.6 4.0 51 4.6 SSW 32 48 17 26 1010.1 1010.1 0.0
26/09:36am 13.6 6.7 4.7 55 4.1 SSW 30 54 16 29 1009.7 1009.7 0.0
26/09:30am 13.2 6.3 4.4 55 4.0 SSW 30 44 16 24 1009.8 1009.8 0.0
26/09:01am 13.0 5.9 5.7 61 3.4 SSW 32 50 17 27 1009.1 1009.1 0.0
26/09:00am 12.9 5.6 5.6 61 3.4 SSW 33 50 18 27 1009.0 1009.0 11.6
26/08:36am 12.7 6.1 6.1 64 3.1 SSW 30 48 16 26 1008.5 1008.5 11.6
26/08:30am 12.7 6.2 6.3 65 3.0 SSW 30 44 16 24 1008.6 1008.6 11.6
26/08:04am 11.7 5.4 7.4 75 2.1 SSW 30 48 16 26 1008.3 1008.3 11.6
26/08:00am 11.7 5.0 7.4 75 2.1 SSW 32 48 17 26 1008.2 1008.2 11.6
26/07:48am 11.4 5.6 7.9 79 1.7 SSW 28 44 15 24 1008.0 1008.0 11.6
26/07:30am 11.0 7.4 8.2 83 1.4 S 17 26 9 14 1007.6 1007.6 10.6
26/07:00am 11.0 6.0 6.4 73 2.2 SW 22 50 12 27 1006.9 1006.9 9.6
26/06:58am 11.5 6.2 6.6 72 2.3 SW 24 50 13 27 1006.9 1006.9 9.4
26/06:30am 10.7 8.3 7.2 79 1.7 SW 9 17 5 9 1006.2 1006.2 9.4
26/06:00am 10.8 5.6 7.3 79 1.7 SW 24 39 13 21 1005.9 1005.9 9.4
26/05:30am 11.1 6.4 7.8 80 1.6 SW 22 39 12 21 1005.2 1005.2 8.6
26/05:00am 11.4 5.5 7.7 78 1.8 SSW 28 43 15 23 1004.6 1004.6 7.2
26/04:35am 11.3 5.3 8.5 83 1.4 SSW 30 54 16 29 1003.9 1003.9 6.8
26/04:30am 11.1 5.1 8.5 84 1.3 SSW 30 46 16 25 1003.9 1003.9 6.8
26/04:00am 11.4 5.9 9.1 86 1.2 SSW 28 48 15 26 1003.5 1003.5 5.4
26/03:59am 11.4 5.9 9.1 86 1.1 SSW 28 48 15 26 1003.4 1003.4 5.4
26/03:30am 11.3 6.3 9.6 89 0.9 SSW 26 41 14 22 1003.4 1003.4 5.0
26/03:00am 13.9 10.6 9.5 75 2.3 NW 17 28 9 15 1002.8 1002.8 3.0
26/02:30am 14.4 11.4 9.4 72 2.6 WNW 15 24 8 13 1002.7 1002.7 3.0
26/02:00am 14.3 11.5 9.9 75 2.3 NW 15 24 8 13 1003.0 1003.0 3.0
26/01:30am 14.2 12.3 10.4 78 2.0 NW 11 20 6 11 1003.2 1003.2 3.0
26/01:00am 14.4 13.0 11.0 80 1.8 NW 9 20 5 11 1003.5 1003.5 3.0
26/12:30am 14.4 12.6 11.0 80 1.8 WNW 11 22 6 12 1003.8 1003.8 3.0
26/12:00am 14.1 13.2 11.4 84 1.4 NW 7 15 4 8 1004.0 1004.0 3.0
 
Date/Time
EST
Temp
°C
App
Temp
°C
Dew
Point
°C
Rel
Hum
%
Delta-T
°C
Wind Press
QNH
hPa
Press
MSL
hPa
Rain since
9am
mm
Dir  Spd
km/h
Gust
km/h
Spd
kts
Gust
kts
25/11:30pm 13.9 11.8 11.1 83 1.5 WNW 13 22 7 12 1004.3 1004.3 3.0
25/11:00pm 14.4 12.4 11.6 83 1.5 WNW 13 20 7 11 1004.4 1004.4 3.0
25/10:30pm 14.5 12.4 12.4 87 1.1 WNW 15 22 8 12 1004.5 1004.5 3.0
25/10:00pm 14.5 12.4 12.5 88 1.1 NW 15 24 8 13 1004.5 1004.5 3.0
25/09:30pm 14.1 13.4 12.1 88 1.1 N 7 15 4 8 1004.5 1004.5 2.4
25/09:00pm 14.0 12.9 11.9 87 1.1 N 9 17 5 9 1004.2 1004.2 1.4
25/08:30pm 13.5 12.6 11.4 87 1.1 N 7 9 4 5 1004.8 1004.8 1.4
25/08:00pm 13.1 12.2 10.8 86 1.2 N 6 7 3 4 1005.2 1005.2 1.4
25/07:30pm 13.6 13.2 11.0 84 1.4 NNE 4 6 2 3 1005.3 1005.3 1.4
25/07:00pm 13.5 12.4 10.7 83 1.5 N 7 9 4 5 1005.4 1005.4 1.4
25/06:30pm 13.7 14.0 10.9 83 1.5 CALM 0 6 0 3 1005.9 1005.9 1.4
25/06:00pm 14.5 14.0 10.7 78 2.0 NNW 4 6 2 3 1005.9 1005.9 1.4
25/05:30pm 16.0 16.4 11.2 73 2.6 CALM 0 0 0 0 1005.9 1005.9 1.4
25/05:00pm 16.6 16.7 11.5 72 2.8 WSW 2 6 1 3 1005.9 1005.9 1.4
25/04:30pm 16.4 16.2 11.8 74 2.5 WSW 4 6 2 3 1006.1 1006.1 1.4
25/04:00pm 16.6 14.9 11.1 70 3.0 SW 11 17 6 9 1006.0 1006.0 1.4
25/03:30pm 17.9 16.8 13.0 73 2.7 SW 11 20 6 11 1006.1 1006.1 1.4
25/03:00pm 17.0 13.8 11.3 69 3.1 SW 19 28 10 15 1006.2 1006.2 1.4
25/02:30pm 17.1 13.9 11.8 71 2.9 SW 20 32 11 17 1006.2 1006.2 1.4
25/02:00pm 17.4 14.3 12.3 72 2.8 SW 20 32 11 17 1006.3 1006.3 1.4
25/01:30pm 16.4 13.1 12.9 80 1.9 SW 22 32 12 17 1006.5 1006.5 1.4
25/01:00pm 15.8 13.0 13.1 84 1.5 SW 20 35 11 19 1006.8 1006.8 1.4
25/12:30pm 16.5 14.7 13.4 82 1.7 SW 15 22 8 12 1006.8 1006.8 1.4
25/12:00pm 16.8 14.6 14.4 86 1.4 SW 19 28 10 15 1007.0 1007.0 1.4
25/11:30am 16.1 14.6 14.3 89 1.0 SW 15 26 8 14 1007.4 1007.4 1.4
25/11:00am 16.0 14.2 14.5 91 0.9 SW 17 24 9 13 1007.4 1007.4 1.4
25/10:30am 15.7 14.6 14.4 92 0.7 SW 13 20 7 11 1007.4 1007.4 1.4
25/10:00am 15.9 14.1 14.4 91 0.9 SW 17 26 9 14 1007.3 1007.3 0.6
25/09:30am 15.8 13.4 14.5 92 0.7 SW 20 33 11 18 1007.1 1007.1 0.6
25/09:00am 16.1 15.5 14.5 90 0.9 WSW 11 26 6 14 1007.1 1007.1 26.2
25/08:30am 16.6 17.1 15.0 90 0.9 WNW 6 11 3 6 1006.8 1006.8 25.2
25/08:00am 16.6 15.8 15.0 90 0.9 WNW 13 20 7 11 1006.6 1006.6 25.2
25/07:30am 17.0 16.3 15.3 90 1.0 WNW 13 22 7 12 1006.2 1006.2 25.2
25/07:00am 17.0 17.2 15.7 92 0.8 NNW 9 19 5 10 1006.0 1006.0 25.2
25/06:30am 16.9 17.0 15.6 92 0.8 NNW 9 15 5 8 1005.9 1005.9 25.2
25/06:00am 16.9 17.1 15.8 93 0.6 N 9 17 5 9 1006.0 1006.0 24.8
25/05:30am 16.8 17.4 15.7 93 0.6 NNW 7 11 4 6 1006.1 1006.1 24.6
25/05:00am 16.6 17.3 15.5 93 0.6 N 6 13 3 7 1006.2 1006.2 23.8
25/04:30am 16.4 16.8 15.3 93 0.6 N 7 11 4 6 1006.4 1006.4 23.4
25/04:00am 16.3 16.9 15.2 93 0.6 N 6 11 3 6 1006.5 1006.5 22.8
25/03:30am 16.3 17.2 15.2 93 0.6 N 4 7 2 4 1007.0 1007.0 22.6
25/03:00am 16.3 17.5 15.0 92 0.8 NNE 2 6 1 3 1007.5 1007.5 22.4
25/02:30am 16.3 17.2 15.0 92 0.8 NNE 4 6 2 3 1007.9 1007.9 22.4
25/02:00am 16.3 17.5 15.0 92 0.8 N 2 4 1 2 1008.4 1008.4 21.2
25/01:30am 16.3 17.5 15.0 92 0.8 N 2 4 1 2 1009.0 1009.0 17.2
25/01:00am 16.3 17.9 15.0 92 0.8 CALM 0 2 0 1 1009.7 1009.7 15.6
25/12:30am 16.3 16.8 15.0 92 0.8 NNE 6 11 3 6 1010.0 1010.0 13.4
25/12:00am 16.5 17.7 15.0 91 0.9 N 2 4 1 2 1010.5 1010.5 8.2
 
Date/Time
EST
Temp
°C
App
Temp
°C
Dew
Point
°C
Rel
Hum
%
Delta-T
°C
Wind Press
QNH
hPa
Press
MSL
hPa
Rain since
9am
mm
Dir  Spd
km/h
Gust
km/h
Spd
kts
Gust
kts
24/11:30pm 16.6 17.1 15.0 90 0.9 E 6 11 3 6 1011.0 1011.0 4.4
24/11:00pm 16.5 16.3 14.7 89 1.0 SE 9 15 5 8 1011.0 1011.0 3.2
24/10:30pm 16.3 15.3 14.7 90 0.9 SE 13 20 7 11 1011.4 1011.4 3.2
24/10:00pm 16.1 16.3 14.6 91 0.9 SW 7 13 4 7 1012.3 1012.3 3.2
24/09:30pm 16.1 15.9 14.6 91 0.9 SSE 9 17 5 9 1012.3 1012.3 3.2
24/09:00pm 16.5 15.6 14.9 90 0.9 SSW 13 22 7 12 1013.1 1013.1 3.0
24/08:30pm 16.6 16.1 15.0 90 0.9 WSW 11 24 6 13 1013.8 1013.7 1.4
24/08:00pm 16.6 17.8 15.0 90 0.9 SE 2 4 1 2 1013.4 1013.4 0.6
24/07:30pm 16.5 16.9 14.7 89 1.0 S 6 7 3 4 1013.8 1013.7 0.6
24/07:00pm 16.7 17.5 14.7 88 1.2 SE 4 7 2 4 1013.7 1013.6 0.6
24/06:30pm 16.9 17.7 14.7 87 1.3 SE 4 6 2 3 1014.0 1013.9 0.6
24/06:00pm 17.4 18.2 14.7 84 1.6 SSE 4 7 2 4 1014.2 1014.1 0.4
24/05:30pm 17.8 18.2 14.7 82 1.8 SSE 6 9 3 5 1014.1 1014.0 0.2
24/05:00pm 18.3 18.5 14.8 80 2.0 SSE 7 11 4 6 1014.2 1014.1 0.2
24/04:30pm 18.6 19.6 15.3 81 1.9 SW 4 6 2 3 1014.5 1014.4 0.2
24/04:00pm 18.9 18.8 15.0 78 2.3 SSW 9 13 5 7 1014.7 1014.6 0.2
24/03:30pm 20.5 21.3 14.8 70 3.3 ESE 4 7 2 4 1015.1 1015.0 0.2
24/03:00pm 20.4 21.0 15.4 73 3.0 SE 6 7 3 4 1015.3 1015.2 0.2
24/02:30pm 20.2 20.7 15.0 72 3.1 ENE 6 7 3 4 1015.5 1015.4 0.2
24/02:00pm 20.3 21.1 14.7 70 3.3 NE 4 6 2 3 1015.7 1015.6 0.2
24/01:30pm 20.9 21.5 15.2 70 3.4 NE 6 9 3 5 1016.2 1016.1 0.2
24/01:00pm 20.5 21.3 15.9 75 2.7 ENE 6 13 3 7 1016.8 1016.7 0.2
24/12:30pm 19.7 20.1 15.4 76 2.5 ENE 7 13 4 7 1017.3 1017.2 0.2
24/12:00pm 18.8 19.1 14.9 78 2.3 ENE 7 9 4 5 1018.1 1018.0 0.0
24/11:30am 17.9 18.3 15.2 84 1.6 ENE 7 11 4 6 1018.7 1018.6 0.0
24/11:00am 17.9 18.4 15.0 83 1.7 NNE 6 11 3 6 1019.2 1019.1 0.0
24/10:30am 17.0 17.4 15.2 89 1.0 NE 7 13 4 7 1019.5 1019.4 0.0
24/10:00am 16.6 16.9 15.0 90 0.9 NE 7 11 4 6 1020.0 1019.9 0.0
24/09:30am 16.7 17.4 15.6 93 0.6 NE 6 9 3 5 1020.1 1020.0 0.0
24/09:00am 15.9 17.1 14.8 93 0.6 N 2 4 1 2 1020.7 1020.6 0.0
24/08:30am 15.4 16.4 14.3 93 0.6 NNW 2 6 1 3 1020.8 1020.7 0.0
24/08:00am 15.1 16.0 14.0 93 0.6 NNW 2 6 1 3 1020.8 1020.7 0.0
24/07:30am 14.9 16.1 13.8 93 0.6 CALM 0 0 0 0 1020.6 1020.5 0.0
24/07:00am 14.8 16.0 13.7 93 0.6 CALM 0 0 0 0 1020.6 1020.5 0.0
24/06:30am 15.0 16.2 13.9 93 0.6 CALM 0 2 0 1 1020.6 1020.5 0.0
24/06:00am 14.9 15.7 13.8 93 0.6 SSW 2 4 1 2 1020.5 1020.4 0.0
24/05:30am 14.9 16.1 13.8 93 0.6 CALM 0 0 0 0 1020.6 1020.5 0.0
24/05:00am 14.5 14.8 13.4 93 0.6 SSW 4 4 2 2 1020.9 1020.8 0.0
24/04:30am 14.8 16.0 13.7 93 0.6 CALM 0 0 0 0 1020.8 1020.7 0.0
24/04:00am 14.9 16.1 13.8 93 0.6 CALM 0 0 0 0 1020.8 1020.7 0.0
24/03:30am 14.6 15.7 13.5 93 0.6 CALM 0 0 0 0 1021.0 1020.9 0.0
24/03:00am 15.1 16.4 14.0 93 0.6 CALM 0 0 0 0 1021.1 1021.0 0.0
24/02:30am 15.3 16.6 14.2 93 0.6 CALM 0 0 0 0 1021.4 1021.3 0.0
24/02:00am 15.3 16.6 14.2 93 0.6 CALM 0 0 0 0 1021.6 1021.5 0.0
24/01:30am 14.8 16.0 13.7 93 0.6 CALM 0 2 0 1 1021.7 1021.6 0.0
24/01:00am 15.2 15.7 14.1 93 0.6 SSW 4 6 2 3 1021.9 1021.8 0.0
24/12:30am 14.3 14.9 13.2 93 0.6 SSW 2 4 1 2 1022.2 1022.2 0.0
24/12:00am 13.6 14.4 12.5 93 0.6 CALM 0 2 0 1 1022.3 1022.3 0.0
 
Date/Time
EST
Temp
°C
App
Temp
°C
Dew
Point
°C
Rel
Hum
%
Delta-T
°C
Wind Press
QNH
hPa
Press
MSL
hPa
Rain since
9am
mm
Dir  Spd
km/h
Gust
km/h
Spd
kts
Gust
kts
23/11:30pm 13.7 14.1 12.6 93 0.6 SSW 2 4 1 2 1022.6 1022.6 0.0
23/11:00pm 12.8 13.3 11.5 92 0.7 CALM 0 0 0 0 1022.8 1022.8 0.0
23/10:30pm 14.0 14.8 12.7 92 0.7 CALM 0 0 0 0 1023.2 1023.2 0.0
23/10:00pm 14.9 15.7 13.6 92 0.7 SSW 2 4 1 2 1023.3 1023.3 0.0
23/09:30pm 15.0 15.0 13.7 92 0.7 SSW 6 6 3 3 1023.4 1023.4 0.0
23/09:00pm 15.6 16.1 14.1 91 0.8 SSW 4 6 2 3 1023.3 1023.3 0.0
23/08:30pm 15.6 16.5 14.0 90 0.9 SSW 2 6 1 3 1023.3 1023.3 0.0
23/08:00pm 16.4 18.0 14.8 90 0.9 CALM 0 0 0 0 1023.4 1023.4 0.0

Other Formats:

Comma delimited format used in spreadsheet applications
http://www.bom.gov.au/fwo/IDV60801/IDV60801.94898.axf

JavaScript Object Notation format (JSON) in row-major order
http://www.bom.gov.au/fwo/IDV60801/IDV60801.94898.json